Time;durP1;ratioP1;P1;durP2;ratioP2;P2;SDS_P1;SDS_P2;PMS_P1;PMS_P2;Temp;Humidity;BMP_temperature;BMP_pressure;BME280_temperature;BME280_humidity;BME280_pressure;Samples;Min_cycle;Max_cycle;Signal;HPM_P1;HPM_P2
2022/06/07 00:01:30;;;;;;;3.75;3.45;;;;;;;20.30;75.10;95581.94;4955703;28;20692;-88
2022/06/07 00:03:56;;;;;;;5.25;3.70;;;;;;;20.22;74.86;95580.50;4956775;29;20669;-86
2022/06/07 00:06:24;;;;;;;4.05;3.33;;;;;;;20.14;75.85;95578.28;4957069;29;20569;-87
2022/06/07 00:08:51;;;;;;;4.20;3.63;;;;;;;20.14;76.30;95575.66;4957233;29;20220;-87
2022/06/07 00:11:18;;;;;;;3.90;3.60;;;;;;;20.19;75.51;95577.59;4955434;28;20664;-87
2022/06/07 00:13:45;;;;;;;3.67;3.35;;;;;;;20.24;75.73;95577.63;4957591;29;20267;-87
2022/06/07 00:16:12;;;;;;;4.03;3.60;;;;;;;20.22;75.40;95579.69;4956408;29;20211;-87
2022/06/07 00:18:38;;;;;;;3.30;3.00;;;;;;;20.20;75.42;95581.78;4955971;28;20193;-87
2022/06/07 00:21:05;;;;;;;3.88;3.50;;;;;;;20.31;74.81;95588.75;4956836;28;20236;-87
2022/06/07 00:23:35;;;;;;;4.30;3.40;;;;;;;20.37;74.38;95592.28;4957354;29;20209;-87
2022/06/07 00:26:02;;;;;;;4.30;3.33;;;;;;;20.40;74.13;95597.81;4957039;29;20205;-87
2022/06/07 00:28:29;;;;;;;3.63;3.33;;;;;;;20.35;74.14;95595.09;4956654;29;20290;-87
2022/06/07 00:30:56;;;;;;;4.18;3.78;;;;;;;20.28;75.10;95605.72;4956215;28;20236;-87
2022/06/07 00:33:24;;;;;;;4.43;3.92;;;;;;;20.23;75.49;95603.00;4957239;29;20601;-87
2022/06/07 00:35:50;;;;;;;3.63;3.33;;;;;;;20.23;75.50;95597.78;4957185;29;20765;-87
2022/06/07 00:38:17;;;;;;;5.35;3.90;;;;;;;20.13;77.46;95608.06;4956976;29;20197;-87
2022/06/07 00:40:45;;;;;;;4.18;3.72;;;;;;;20.15;77.30;95605.22;4956171;28;20245;-87
2022/06/07 00:43:11;;;;;;;4.05;3.75;;;;;;;20.14;76.99;95609.66;4956822;29;20260;-87
2022/06/07 00:45:39;;;;;;;4.32;3.72;;;;;;;19.99;76.95;95612.81;4956504;29;20268;-87
2022/06/07 00:48:07;;;;;;;4.03;3.72;;;;;;;19.96;77.55;95623.72;4956442;29;20204;-86
2022/06/07 00:50:41;;;;;;;3.80;3.47;;;;;;;19.84;76.79;95627.38;4957981;28;20783;-87
2022/06/07 00:53:20;;;;;;;4.60;3.40;;;;;;;19.56;77.98;95628.19;4961917;29;20204;-87
2022/06/07 00:55:48;;;;;;;3.58;3.25;;;;;;;19.48;77.84;95631.09;4943879;29;20205;-87
2022/06/07 00:58:15;;;;;;;4.50;3.50;;;;;;;19.36;78.68;95635.56;4958530;29;20228;-87
2022/06/07 01:00:41;;;;;;;3.30;3.10;;;;;;;19.25;79.54;95639.75;4960008;28;20229;-87
2022/06/07 01:03:08;;;;;;;3.83;3.40;;;;;;;19.28;79.40;95634.09;4960757;29;20201;-87
2022/06/07 01:05:34;;;;;;;6.68;3.40;;;;;;;19.21;80.32;95630.81;4961227;29;20209;-87
2022/06/07 01:10:48;;;;;;;3.58;3.30;;;;;;;19.11;82.10;95628.78;4959310;28;20287;-87
2022/06/07 01:13:17;;;;;;;4.88;3.25;;;;;;;19.15;80.87;95636.94;4960951;29;20200;-87
2022/06/07 01:15:45;;;;;;;5.53;3.33;;;;;;;19.15;80.46;95635.13;4960555;29;20212;-87
2022/06/07 01:18:11;;;;;;;4.50;3.00;;;;;;;19.13;79.89;95631.97;4960140;29;20233;-87
2022/06/07 01:20:38;;;;;;;3.42;3.08;;;;;;;19.18;79.60;95633.88;4960119;28;20636;-87
2022/06/07 01:23:07;;;;;;;5.13;3.25;;;;;;;19.12;80.55;95626.97;4960721;29;20205;-87
2022/06/07 01:25:34;;;;;;;4.63;3.00;;;;;;;19.03;81.11;95621.31;4960889;28;20205;-87
2022/06/07 01:28:00;;;;;;;3.30;3.00;;;;;;;19.11;82.04;95625.38;4960204;29;20692;-87
2022/06/07 01:30:26;;;;;;;3.78;2.97;;;;;;;19.11;81.18;95615.72;4960398;28;20244;-86
2022/06/07 01:32:53;;;;;;;3.20;2.90;;;;;;;19.09;81.45;95611.75;4961190;29;20201;-87
2022/06/07 01:35:20;;;;;;;5.85;3.40;;;;;;;18.98;82.89;95608.16;4960735;29;20208;-86
2022/06/07 01:37:46;;;;;;;5.32;3.20;;;;;;;18.79;83.71;95599.66;4959217;29;20759;-86
2022/06/07 01:42:58;;;;;;;3.25;2.95;;;;;;;18.76;82.58;95596.69;4959356;29;20755;-87
2022/06/07 01:45:25;;;;;;;3.00;2.80;;;;;;;18.79;81.79;95589.22;4958876;29;20205;-86
2022/06/07 01:47:51;;;;;;;5.05;3.38;;;;;;;18.86;81.75;95587.25;4959632;29;20204;-87
2022/06/07 01:50:18;;;;;;;3.50;2.95;;;;;;;18.80;83.24;95588.19;4957978;28;20263;-86
2022/06/07 01:52:44;;;;;;;3.95;3.25;;;;;;;18.62;85.14;95570.84;4958589;29;20229;-87
2022/06/07 01:55:11;;;;;;;4.18;3.20;;;;;;;18.40;85.11;95571.59;4959043;29;20205;-86
2022/06/07 01:57:39;;;;;;;3.88;3.58;;;;;;;18.24;85.13;95568.63;4959321;29;20237;-86
2022/06/07 02:00:06;;;;;;;4.22;3.63;;;;;;;18.28;85.02;95561.91;4958478;28;20197;-86
2022/06/07 02:02:33;;;;;;;3.30;3.00;;;;;;;18.37;86.28;95554.59;4958597;28;20673;-85
2022/06/07 02:04:59;;;;;;;3.92;3.30;;;;;;;18.37;87.39;95559.00;4959233;29;20673;-86
2022/06/07 02:07:26;;;;;;;3.30;3.10;;;;;;;18.37;88.33;95551.97;4958600;29;20259;-87
2022/06/07 02:09:52;;;;;;;3.55;3.25;;;;;;;18.50;87.29;95548.34;4959549;28;20225;-86
2022/06/07 02:12:18;;;;;;;4.93;3.58;;;;;;;18.38;86.88;95550.16;4957947;28;20236;-86
2022/06/07 02:14:46;;;;;;;3.63;3.33;;;;;;;18.39;88.70;95554.34;4958869;29;20205;-87
2022/06/07 02:17:13;;;;;;;3.92;3.53;;;;;;;18.34;89.03;95551.63;4958771;29;20201;-86
2022/06/07 02:19:40;;;;;;;6.57;3.40;;;;;;;18.22;87.97;95555.03;4958420;29;20209;-86
2022/06/07 02:22:07;;;;;;;3.28;2.97;;;;;;;18.30;86.94;95565.09;4957612;28;20255;-86
2022/06/07 02:24:34;;;;;;;3.47;3.03;;;;;;;18.43;86.20;95563.31;4958462;29;20299;-86
2022/06/07 02:27:04;;;;;;;3.10;2.90;;;;;;;18.48;86.22;95563.41;4957611;29;20205;-86
2022/06/07 02:29:33;;;;;;;5.90;4.18;;;;;;;18.46;86.43;95558.47;4957506;29;20221;-86
2022/06/07 02:32:05;;;;;;;3.72;3.20;;;;;;;18.42;86.58;95557.31;4956639;28;20225;-86
2022/06/07 02:34:34;;;;;;;5.15;3.28;;;;;;;18.38;88.19;95564.00;4957938;29;20212;-86
2022/06/07 02:37:04;;;;;;;3.53;3.22;;;;;;;18.40;86.79;95567.16;4958042;29;20580;-87
2022/06/07 02:39:32;;;;;;;3.60;3.30;;;;;;;18.37;87.56;95559.78;4957943;29;20767;-86
2022/06/07 02:42:01;;;;;;;3.60;3.30;;;;;;;18.33;87.92;95556.03;4956670;28;20241;-85
2022/06/07 02:44:27;;;;;;;3.58;3.28;;;;;;;18.27;88.77;95554.34;4957194;29;20272;-87
2022/06/07 02:46:54;;;;;;;3.80;3.10;;;;;;;18.39;88.18;95549.16;4956864;29;20205;-85
2022/06/07 02:49:22;;;;;;;4.55;3.55;;;;;;;18.40;87.48;95551.53;4956800;29;20228;-86
2022/06/07 02:51:48;;;;;;;3.88;3.53;;;;;;;18.31;88.49;95555.47;4949540;28;20237;-86
2022/06/07 02:54:14;;;;;;;3.55;3.22;;;;;;;18.30;87.02;95562.50;4937682;29;20217;-85
2022/06/07 02:56:41;;;;;;;3.40;3.10;;;;;;;18.36;85.23;95567.84;4945512;29;20208;-86
2022/06/07 02:59:07;;;;;;;3.65;3.35;;;;;;;18.35;85.29;95558.44;4957019;29;20672;-86
2022/06/07 03:01:34;;;;;;;3.42;3.17;;;;;;;18.36;85.04;95565.22;4955788;28;20232;-86
2022/06/07 03:04:00;;;;;;;2.90;2.65;;;;;;;18.37;84.56;95564.22;4957603;29;20208;-86
2022/06/07 03:06:28;;;;;;;2.80;2.60;;;;;;;18.37;82.68;95567.63;4956820;29;20197;-85
2022/06/07 03:08:55;;;;;;;2.80;2.60;;;;;;;18.36;82.50;95568.63;4956995;29;20299;-86
2022/06/07 03:11:22;;;;;;;3.30;2.70;;;;;;;18.31;82.73;95571.09;4956000;28;20259;-86
2022/06/07 03:13:48;;;;;;;2.70;2.50;;;;;;;18.29;82.16;95568.72;4956512;28;20277;-86
2022/06/07 03:16:15;;;;;;;2.58;2.47;;;;;;;18.38;82.37;95576.22;4957231;29;20193;-85
2022/06/07 03:18:42;;;;;;;2.33;2.13;;;;;;;18.30;80.25;95578.13;4956615;29;20296;-86
2022/06/07 03:21:08;;;;;;;2.58;2.33;;;;;;;18.27;81.59;95570.00;4955799;28;20243;-85
2022/06/07 03:23:36;;;;;;;2.60;2.40;;;;;;;18.34;81.59;95572.47;4956677;29;20572;-86
2022/06/07 03:26:04;;;;;;;2.40;2.20;;;;;;;18.20;82.85;95572.69;4956116;29;20211;-86
2022/06/07 03:28:31;;;;;;;2.20;2.10;;;;;;;18.01;83.49;95563.38;4956618;29;20216;-85
2022/06/07 03:31:04;;;;;;;2.67;2.47;;;;;;;18.05;83.53;95561.91;4954841;28;20224;-86
2022/06/07 03:33:32;;;;;;;2.40;2.20;;;;;;;18.16;82.78;95571.53;4955930;28;20606;-86
2022/06/07 03:36:04;;;;;;;2.08;1.85;;;;;;;18.23;79.99;95568.84;4955937;29;20201;-85
2022/06/07 03:38:30;;;;;;;2.20;2.00;;;;;;;18.29;78.95;95573.16;4955409;29;20253;-85
2022/06/07 03:40:58;;;;;;;2.15;1.95;;;;;;;18.22;80.24;95565.44;4955480;28;20240;-86
2022/06/07 03:43:25;;;;;;;1.95;1.85;;;;;;;18.23;80.02;95564.44;4956230;29;20196;-86
2022/06/07 03:45:51;;;;;;;3.15;2.03;;;;;;;18.32;86.37;95574.50;4955240;29;20903;-85
2022/06/07 03:48:17;;;;;;;2.20;2.05;;;;;;;18.41;80.47;95567.97;4956104;29;20200;-85
2022/06/07 03:50:44;;;;;;;2.17;1.95;;;;;;;18.36;80.34;95566.03;4955186;28;20803;-86
2022/06/07 03:53:11;;;;;;;2.63;1.90;;;;;;;18.29;80.25;95566.13;4956846;29;20204;-86
2022/06/07 03:55:42;;;;;;;2.20;2.00;;;;;;;18.23;80.05;95574.84;4956404;29;20200;-86
2022/06/07 03:58:10;;;;;;;2.30;2.10;;;;;;;18.23;80.48;95572.25;4956009;29;20204;-87
2022/06/07 04:00:37;;;;;;;2.10;2.00;;;;;;;18.24;80.70;95573.03;4955344;28;20239;-87
2022/06/07 04:03:04;;;;;;;2.10;1.90;;;;;;;18.29;80.44;95581.75;4957762;29;20256;-85
2022/06/07 04:05:30;;;;;;;2.33;2.13;;;;;;;18.37;79.73;95577.25;4956273;29;20209;-87
2022/06/07 04:08:12;;;;;;;2.55;2.10;;;;;;;18.37;79.87;95579.84;4955640;29;20224;-86
2022/06/07 04:10:45;;;;;;;1.95;1.85;;;;;;;18.40;78.54;95574.19;4954047;28;20240;-86
2022/06/07 04:13:14;;;;;;;2.55;2.00;;;;;;;18.38;78.36;95582.25;4957217;29;20249;-85
2022/06/07 04:15:40;;;;;;;2.30;2.08;;;;;;;18.38;78.96;95582.25;4956794;29;20621;-85
2022/06/07 04:18:07;;;;;;;2.30;2.20;;;;;;;18.42;79.69;95582.59;4956009;29;20200;-86
2022/06/07 04:20:33;;;;;;;2.20;2.10;;;;;;;18.43;80.04;95571.16;4955282;28;20252;-85
2022/06/07 04:23:00;;;;;;;2.65;2.17;;;;;;;18.39;80.32;95572.59;4956347;29;20197;-86
2022/06/07 04:25:27;;;;;;;3.85;2.20;;;;;;;18.39;80.68;95573.41;4955778;29;20595;-86
2022/06/07 04:27:54;;;;;;;3.38;3.08;;;;;;;18.48;80.70;95560.81;4957188;29;20365;-87
2022/06/07 04:30:22;;;;;;;3.13;2.65;;;;;;;18.45;81.84;95561.28;4955903;28;20283;-86
2022/06/07 04:32:49;;;;;;;2.92;2.70;;;;;;;18.26;82.55;95564.00;4956498;28;20685;-85
2022/06/07 04:35:18;;;;;;;2.90;2.70;;;;;;;18.24;83.33;95568.63;4957049;29;20613;-85
2022/06/07 04:37:44;;;;;;;2.90;2.20;;;;;;;18.28;81.47;95566.34;4956848;29;20268;-87
2022/06/07 04:40:11;;;;;;;2.20;2.05;;;;;;;18.35;80.26;95568.84;4955550;28;20743;-86
2022/06/07 04:42:38;;;;;;;2.40;2.20;;;;;;;18.44;80.03;95568.31;4956300;28;20209;-86
2022/06/07 04:45:06;;;;;;;1.90;1.80;;;;;;;18.49;79.47;95560.59;4955888;29;20209;-85
2022/06/07 04:47:34;;;;;;;2.42;2.13;;;;;;;18.52;79.87;95560.13;4956020;29;20205;-87
2022/06/07 04:50:00;;;;;;;2.47;2.00;;;;;;;18.59;79.17;95566.06;4959492;28;20229;-87
2022/06/07 04:52:27;;;;;;;2.22;2.03;;;;;;;18.62;78.39;95565.63;4958686;29;20229;-88
2022/06/07 04:54:53;;;;;;;2.20;1.88;;;;;;;18.55;77.60;95561.50;4958166;29;20264;-87
2022/06/07 04:57:21;;;;;;;2.53;2.25;;;;;;;18.49;79.15;95562.41;4958443;29;20296;-87
2022/06/07 04:59:50;;;;;;;2.65;2.20;;;;;;;18.49;77.53;95565.00;4957880;29;20232;-87
2022/06/07 05:02:17;;;;;;;3.10;2.10;;;;;;;18.49;77.43;95559.78;4956955;28;20314;-87
2022/06/07 05:04:45;;;;;;;2.15;1.90;;;;;;;18.52;77.66;95552.31;4957651;29;20208;-87
2022/06/07 05:07:12;;;;;;;2.15;1.90;;;;;;;18.57;78.11;95560.25;4957890;29;20616;-87
2022/06/07 05:09:38;;;;;;;2.90;2.10;;;;;;;18.60;78.42;95561.66;4957913;29;20201;-87
2022/06/07 05:12:05;;;;;;;2.15;2.00;;;;;;;18.62;77.45;95564.84;4956959;28;20244;-87
2022/06/07 05:14:32;;;;;;;2.38;2.13;;;;;;;18.57;77.92;95559.47;4957785;29;20225;-87
2022/06/07 05:16:58;;;;;;;2.83;2.00;;;;;;;18.55;78.17;95558.91;4957848;29;20209;-87
2022/06/07 05:19:25;;;;;;;2.33;2.13;;;;;;;18.53;78.74;95555.72;4957762;29;20220;-87
2022/06/07 05:21:53;;;;;;;1.80;1.70;;;;;;;18.49;79.83;95555.38;4957474;28;20237;-87
2022/06/07 05:24:19;;;;;;;2.95;2.05;;;;;;;18.41;81.36;95557.53;4957906;28;20267;-87
2022/06/07 05:26:50;;;;;;;2.40;2.20;;;;;;;18.34;81.46;95557.63;4957196;29;20231;-87
2022/06/07 05:29:21;;;;;;;2.97;2.38;;;;;;;18.11;84.88;95549.78;4957500;29;20209;-87
2022/06/07 05:31:47;;;;;;;2.70;2.50;;;;;;;17.96;83.75;95550.19;4956652;28;20236;-86
2022/06/07 05:34:14;;;;;;;3.08;2.25;;;;;;;18.06;83.71;95560.09;4957478;29;20208;-86
2022/06/07 05:36:40;;;;;;;3.10;2.65;;;;;;;18.21;83.02;95555.25;4959921;28;20267;-86
2022/06/07 05:39:16;;;;;;;2.63;2.42;;;;;;;18.18;83.37;95553.88;4961574;29;20205;-87
2022/06/07 05:41:42;;;;;;;2.75;2.33;;;;;;;18.27;82.40;95567.38;4959723;28;20268;-87
2022/06/07 05:44:09;;;;;;;2.55;2.30;;;;;;;18.22;82.40;95560.25;4961259;28;20565;-87
2022/06/07 05:46:35;;;;;;;3.13;2.25;;;;;;;18.25;81.31;95561.59;4960525;29;20204;-87
2022/06/07 05:49:03;;;;;;;2.20;2.10;;;;;;;18.27;80.38;95565.56;4960677;29;20209;-87
2022/06/07 05:51:30;;;;;;;4.45;2.67;;;;;;;18.32;80.41;95557.06;4959369;28;20292;-88
2022/06/07 05:53:56;;;;;;;4.55;3.38;;;;;;;18.21;83.72;95545.63;4961204;29;20209;-87
2022/06/07 05:56:24;;;;;;;4.82;3.40;;;;;;;18.00;84.49;95546.13;4961081;29;20232;-87
2022/06/07 05:58:50;;;;;;;5.18;2.67;;;;;;;17.86;83.81;95542.16;4961258;29;20697;-86
2022/06/07 06:01:17;;;;;;;3.78;2.50;;;;;;;17.97;85.02;95549.19;4959443;28;20295;-87
2022/06/07 06:03:44;;;;;;;2.15;1.98;;;;;;;18.09;83.57;95557.81;4960384;29;20213;-86
2022/06/07 06:06:11;;;;;;;2.97;2.15;;;;;;;17.95;82.99;95546.00;4960156;29;20209;-87
2022/06/07 06:11:38;;;;;;;2.75;2.28;;;;;;;17.88;83.77;95550.53;4918478;29;20248;-87
2022/06/07 06:14:04;;;;;;;2.60;2.40;;;;;;;18.12;83.01;95552.16;4920082;29;20237;-87
2022/06/07 06:16:31;;;;;;;2.28;2.10;;;;;;;18.36;82.21;95549.59;4937226;28;20197;-87
2022/06/07 06:18:59;;;;;;;3.13;2.83;;;;;;;18.30;84.26;95557.28;4959513;29;20202;-87
2022/06/07 06:21:29;;;;;;;4.28;3.88;;;;;;;18.23;86.33;95543.59;4957396;28;20233;-87
2022/06/07 06:23:57;;;;;;;2.58;2.38;;;;;;;18.23;84.37;95543.59;4959782;29;20549;-86
2022/06/07 06:26:24;;;;;;;3.30;3.00;;;;;;;18.32;85.56;95551.06;4959905;29;20233;-87
2022/06/07 06:28:52;;;;;;;6.95;2.63;;;;;;;18.41;85.30;95547.91;4959664;29;20676;-87
2022/06/07 06:31:20;;;;;;;2.88;2.60;;;;;;;18.49;84.46;95555.38;4958525;28;20243;-87
2022/06/07 06:33:49;;;;;;;2.75;2.55;;;;;;;18.53;83.72;95560.94;4958620;29;20209;-85
2022/06/07 06:36:18;;;;;;;4.35;2.42;;;;;;;18.46;85.88;95566.28;4957745;28;20724;-86
2022/06/07 06:38:45;;;;;;;3.78;2.88;;;;;;;18.55;85.24;95559.69;4958607;29;20213;-87
2022/06/07 06:41:13;;;;;;;2.60;2.40;;;;;;;18.63;84.16;95562.00;4956928;28;20526;-86
2022/06/07 06:43:40;;;;;;;2.70;2.45;;;;;;;18.74;83.22;95564.81;4958395;29;20229;-87
2022/06/07 06:46:09;;;;;;;2.78;2.25;;;;;;;18.62;83.17;95562.22;4957450;29;20288;-87
2022/06/07 06:48:36;;;;;;;2.33;2.10;;;;;;;18.45;84.87;95563.91;4957269;28;20212;-86
2022/06/07 06:51:05;;;;;;;2.55;2.10;;;;;;;18.36;85.87;95571.25;4956624;28;20716;-85
2022/06/07 06:53:31;;;;;;;5.88;2.42;;;;;;;18.21;84.64;95570.88;4957800;29;20632;-86
2022/06/07 06:55:58;;;;;;;2.47;2.10;;;;;;;18.20;84.18;95572.69;4957296;29;20205;-87
2022/06/07 06:58:25;;;;;;;2.45;1.95;;;;;;;18.33;84.32;95578.72;4957742;29;20212;-86
2022/06/07 07:01:00;;;;;;;2.20;2.00;;;;;;;18.46;84.15;95581.91;4956695;28;20719;-87
2022/06/07 07:03:28;;;;;;;3.00;2.08;;;;;;;18.40;85.09;95582.81;4957116;29;20207;-86
2022/06/07 07:05:56;;;;;;;2.33;2.13;;;;;;;18.53;85.14;95593.03;4956888;29;20264;-86
2022/06/07 07:08:23;;;;;;;2.22;2.03;;;;;;;18.65;84.66;95597.50;4956804;29;20212;-87
2022/06/07 07:10:50;;;;;;;2.20;2.03;;;;;;;18.46;84.93;95586.34;4955126;28;20791;-86
2022/06/07 07:13:16;;;;;;;3.80;2.67;;;;;;;18.37;85.64;95583.25;4956453;29;20208;-86
2022/06/07 07:15:47;;;;;;;4.63;2.72;;;;;;;18.32;86.00;95590.16;4956888;29;20232;-87
2022/06/07 07:18:14;;;;;;;4.50;2.60;;;;;;;18.36;86.28;95586.09;4957300;28;20232;-86
2022/06/07 07:20:42;;;;;;;3.20;2.45;;;;;;;18.39;87.66;95590.84;4956668;28;20256;-87
2022/06/07 07:23:08;;;;;;;2.60;2.40;;;;;;;18.48;85.06;95602.53;4958533;29;20209;-85
2022/06/07 07:25:35;;;;;;;2.25;2.10;;;;;;;18.44;84.05;95606.63;4957676;29;20216;-86
2022/06/07 07:28:02;;;;;;;2.70;2.50;;;;;;;18.35;85.48;95605.34;4957082;28;20811;-86
2022/06/07 07:30:29;;;;;;;3.78;3.25;;;;;;;18.33;86.29;95599.56;4955747;28;20236;-86
2022/06/07 07:32:56;;;;;;;2.70;2.50;;;;;;;18.33;87.37;95604.78;4957437;29;20275;-86
2022/06/07 07:35:23;;;;;;;2.50;2.30;;;;;;;18.32;87.96;95605.78;4956943;28;20303;-87
2022/06/07 07:37:51;;;;;;;3.95;2.40;;;;;;;18.28;89.31;95610.66;4957159;29;20209;-87
2022/06/07 07:40:17;;;;;;;2.90;2.70;;;;;;;18.34;86.79;95614.97;4955940;28;20320;-86
2022/06/07 07:42:44;;;;;;;2.88;2.63;;;;;;;18.39;85.10;95615.13;4956788;28;20211;-87
2022/06/07 07:45:12;;;;;;;2.50;2.30;;;;;;;18.39;84.23;95612.50;4956800;28;20275;-86
2022/06/07 07:47:39;;;;;;;2.50;2.30;;;;;;;18.36;84.21;95618.16;4956246;28;20224;-86
2022/06/07 07:50:06;;;;;;;2.88;2.58;;;;;;;18.22;87.68;95616.78;4955766;28;20201;-86
2022/06/07 07:52:33;;;;;;;2.83;2.63;;;;;;;18.13;87.45;95615.50;4956099;28;20224;-86
2022/06/07 07:55:01;;;;;;;2.85;2.45;;;;;;;18.08;86.17;95613.56;4956300;29;20201;-87
2022/06/07 07:57:27;;;;;;;3.10;2.70;;;;;;;18.08;86.98;95610.97;4956419;29;20231;-86
2022/06/07 07:59:54;;;;;;;2.88;2.67;;;;;;;18.12;86.25;95611.28;4956023;28;20244;-88
2022/06/07 08:02:22;;;;;;;2.58;2.38;;;;;;;18.12;88.83;95609.50;4954869;28;20287;-86
2022/06/07 08:04:48;;;;;;;2.63;2.45;;;;;;;18.20;88.26;95608.38;4956061;29;20204;-86
2022/06/07 08:07:16;;;;;;;3.00;2.80;;;;;;;18.22;88.73;95611.56;4956212;29;20208;-86
2022/06/07 08:09:42;;;;;;;3.00;2.72;;;;;;;18.26;87.66;95613.50;4956704;29;20205;-87
2022/06/07 08:12:10;;;;;;;3.30;3.00;;;;;;;18.25;90.72;95611.13;4956516;28;20232;-87
2022/06/07 08:14:37;;;;;;;3.45;2.90;;;;;;;18.24;89.17;95610.34;4956827;29;20225;-86
2022/06/07 08:17:04;;;;;;;3.08;2.80;;;;;;;18.27;89.73;95609.88;4956097;29;20205;-87
2022/06/07 08:19:32;;;;;;;3.20;2.50;;;;;;;18.32;89.11;95609.19;4957258;28;20212;-86
2022/06/07 08:21:58;;;;;;;2.40;2.20;;;;;;;18.39;87.32;95616.94;4955846;28;20284;-87
2022/06/07 08:24:28;;;;;;;2.38;2.17;;;;;;;18.37;85.82;95614.53;4957172;29;20209;-86
2022/06/07 08:26:54;;;;;;;2.53;2.33;;;;;;;18.39;85.89;95616.94;4956530;28;20209;-87
2022/06/07 08:29:22;;;;;;;2.53;2.33;;;;;;;18.40;87.22;95608.09;4956921;29;20223;-87
2022/06/07 08:31:49;;;;;;;2.92;2.70;;;;;;;18.30;89.65;95619.03;4955706;28;20720;-86
2022/06/07 08:39:59;;;;;;;2.95;2.58;;;;;;;18.35;89.86;95627.00;4937626;29;20264;-87
2022/06/07 08:42:29;;;;;;;2.72;2.53;;;;;;;18.40;87.93;95628.94;4935998;29;20229;-88
2022/06/07 08:44:59;;;;;;;2.85;2.53;;;;;;;18.40;87.43;95624.53;4946557;28;20817;-87
2022/06/07 08:47:32;;;;;;;3.38;2.72;;;;;;;18.47;86.84;95619.97;4958175;28;20208;-87
2022/06/07 08:50:11;;;;;;;2.60;2.40;;;;;;;18.41;89.65;95622.72;4958491;28;20201;-87
2022/06/07 08:52:37;;;;;;;2.40;2.20;;;;;;;18.49;87.41;95622.38;4958493;28;20233;-87
2022/06/07 08:55:14;;;;;;;2.70;2.50;;;;;;;18.52;88.67;95627.94;4957578;29;20676;-87
2022/06/07 08:57:42;;;;;;;2.50;2.22;;;;;;;18.58;88.52;95632.25;4958509;29;20204;-87
2022/06/07 09:00:17;;;;;;;2.40;2.20;;;;;;;18.54;86.64;95632.94;4957214;28;20581;-86
2022/06/07 09:03:05;;;;;;;2.50;2.30;;;;;;;18.35;85.84;95629.59;4957504;29;20207;-87
2022/06/07 09:05:32;;;;;;;2.33;2.15;;;;;;;18.29;86.70;95626.06;4958221;29;20255;-87
2022/06/07 09:07:58;;;;;;;3.38;2.00;;;;;;;18.29;87.33;95628.69;4958266;28;20204;-87
2022/06/07 09:13:19;;;;;;;2.33;2.17;;;;;;;18.28;87.82;95628.91;4961539;29;20268;-87
2022/06/07 09:15:50;;;;;;;3.63;2.70;;;;;;;18.34;87.99;95627.22;4961399;29;20216;-87
2022/06/07 09:18:20;;;;;;;4.85;3.00;;;;;;;18.32;86.66;95624.03;4960235;29;20201;-87
2022/06/07 09:20:50;;;;;;;2.90;2.70;;;;;;;18.33;87.87;95628.25;4959809;28;20264;-87
2022/06/07 09:23:20;;;;;;;3.35;3.00;;;;;;;18.35;88.49;95627.00;4960451;28;20580;-87
2022/06/07 09:25:50;;;;;;;3.95;2.97;;;;;;;18.45;86.82;95624.66;4960538;29;20205;-87
2022/06/07 09:28:19;;;;;;;3.50;3.20;;;;;;;18.40;87.67;95626.34;4960735;28;20205;-87
2022/06/07 09:30:49;;;;;;;3.20;3.00;;;;;;;18.48;88.64;95621.56;4959924;28;20287;-86
2022/06/07 09:33:24;;;;;;;3.78;3.40;;;;;;;18.58;88.74;95621.81;4959739;29;21017;-88
2022/06/07 09:35:53;;;;;;;3.50;3.20;;;;;;;18.61;87.61;95625.84;4960664;29;20232;-87
2022/06/07 09:38:34;;;;;;;3.83;3.50;;;;;;;18.52;90.36;95630.53;4959919;29;20276;-87
2022/06/07 09:41:36;;;;;;;4.10;3.80;;;;;;;18.39;90.61;95616.94;4958895;28;20232;-87
2022/06/07 09:43:55;;;;;;;3.08;2.80;;;;;;;18.34;85.07;95622.81;4960319;29;20705;-87
2022/06/07 09:46:25;;;;;;;2.55;2.35;;;;;;;18.32;82.19;95621.44;4959611;29;20208;-86
2022/06/07 09:48:52;;;;;;;3.50;2.50;;;;;;;18.26;81.94;95616.13;4959872;28;20205;-87
2022/06/07 09:51:23;;;;;;;2.83;2.63;;;;;;;18.27;83.02;95619.53;4958570;28;20713;-87
2022/06/07 09:53:59;;;;;;;2.10;2.00;;;;;;;18.27;80.70;95627.34;4959220;29;20233;-87
2022/06/07 09:56:34;;;;;;;3.60;2.70;;;;;;;18.32;82.03;95622.22;4959518;28;20291;-87
2022/06/07 09:59:12;;;;;;;2.70;2.50;;;;;;;18.43;82.50;95624.09;4959022;28;20232;-87
2022/06/07 10:01:45;;;;;;;3.00;2.75;;;;;;;18.38;85.18;95623.16;4958156;28;20241;-87
2022/06/07 10:04:22;;;;;;;2.90;2.70;;;;;;;18.30;84.81;95619.03;4958867;29;20212;-87
2022/06/07 10:06:57;;;;;;;2.97;2.78;;;;;;;18.32;82.63;95617.00;4958752;29;20213;-87
2022/06/07 10:09:49;;;;;;;3.60;3.30;;;;;;;18.33;82.80;95612.59;4958386;29;20236;-86
2022/06/07 10:12:30;;;;;;;5.32;3.67;;;;;;;18.34;85.32;95612.38;4957321;28;20230;-87
2022/06/07 10:15:18;;;;;;;4.90;4.35;;;;;;;18.39;83.80;95603.88;4957586;29;20781;-86
2022/06/07 10:18:03;;;;;;;5.47;4.97;;;;;;;18.44;87.12;95604.81;4958237;29;20200;-87
2022/06/07 10:20:44;;;;;;;6.55;5.50;;;;;;;18.57;84.95;95609.00;4957394;28;20312;-86
2022/06/07 10:23:33;;;;;;;4.45;3.97;;;;;;;18.70;85.50;95614.03;4957732;28;20638;-87
2022/06/07 10:26:15;;;;;;;4.03;3.72;;;;;;;18.85;85.77;95614.41;4959048;29;20205;-87
2022/06/07 10:28:57;;;;;;;4.18;3.88;;;;;;;18.85;87.61;95617.00;4957498;29;20262;-86
2022/06/07 10:31:39;;;;;;;4.97;4.20;;;;;;;18.82;85.56;95617.47;4957117;28;20296;-87
2022/06/07 10:34:15;;;;;;;3.72;3.42;;;;;;;18.86;83.06;95610.75;4958022;29;20209;-87
2022/06/07 10:36:50;;;;;;;3.60;3.40;;;;;;;18.82;81.76;95611.44;4957493;29;20250;-86
2022/06/07 10:39:40;;;;;;;3.95;3.55;;;;;;;18.86;81.87;95608.13;4957951;29;20219;-87
2022/06/07 10:42:18;;;;;;;4.00;3.60;;;;;;;18.81;80.29;95612.47;4956974;28;20232;-86
2022/06/07 10:44:49;;;;;;;3.85;3.55;;;;;;;18.86;81.56;95610.75;4958419;29;20212;-87
2022/06/07 10:47:23;;;;;;;4.10;3.70;;;;;;;18.90;81.50;95604.06;4957659;29;20208;-87
2022/06/07 10:49:55;;;;;;;3.83;3.53;;;;;;;18.99;82.58;95599.28;4957309;29;20205;-86
2022/06/07 10:52:31;;;;;;;4.20;3.90;;;;;;;19.21;83.97;95609.94;4956642;28;20237;-87
2022/06/07 10:55:06;;;;;;;4.57;4.18;;;;;;;19.33;83.63;95597.66;4958669;28;20208;-87
2022/06/07 10:57:39;;;;;;;4.28;3.88;;;;;;;19.49;81.78;95593.53;4957635;29;20739;-87
2022/06/07 11:00:29;;;;;;;4.35;4.05;;;;;;;19.58;80.55;95587.75;4957684;28;20209;-87
2022/06/07 11:03:03;;;;;;;4.32;4.03;;;;;;;19.63;81.07;95595.66;4958791;29;20271;-86
2022/06/07 11:11:12;;;;;;;4.00;3.70;;;;;;;19.83;79.93;95597.06;4957126;28;20240;-87
2022/06/07 11:13:46;;;;;;;3.92;3.60;;;;;;;19.78;77.90;95591.75;4957326;29;20316;-87
2022/06/07 11:16:19;;;;;;;3.60;3.38;;;;;;;19.82;79.01;95595.50;4957112;29;20205;-87
2022/06/07 11:18:46;;;;;;;5.82;3.63;;;;;;;19.88;81.82;95590.13;4957036;29;20620;-87
2022/06/07 11:21:26;;;;;;;5.55;3.42;;;;;;;19.93;77.97;95592.03;4955584;28;20279;-87
2022/06/07 11:23:59;;;;;;;3.47;3.17;;;;;;;19.96;77.60;95592.34;4957383;29;20212;-86
2022/06/07 11:26:26;;;;;;;3.45;3.15;;;;;;;19.93;76.15;95584.97;4957035;29;20665;-86
2022/06/07 11:28:56;;;;;;;3.47;3.20;;;;;;;19.78;79.40;95589.16;4956390;28;20564;-87
2022/06/07 11:31:29;;;;;;;3.38;3.10;;;;;;;19.77;80.01;95582.34;4956393;28;20743;-86
2022/06/07 11:34:03;;;;;;;3.13;2.85;;;;;;;19.77;76.46;95582.34;4957027;28;20277;-86
2022/06/07 11:36:35;;;;;;;2.83;2.55;;;;;;;19.69;73.71;95588.72;4957543;29;20299;-86
2022/06/07 11:39:21;;;;;;;3.70;2.65;;;;;;;19.68;76.40;95600.19;4957436;28;20224;-86
2022/06/07 11:41:51;;;;;;;2.80;2.60;;;;;;;19.69;77.58;95595.75;4957188;28;20236;-87
2022/06/07 11:44:37;;;;;;;2.42;2.08;;;;;;;19.77;75.96;95592.78;4958778;28;20200;-86
2022/06/07 11:47:22;;;;;;;2.80;2.10;;;;;;;19.69;74.94;95591.31;4959186;29;20204;-86
2022/06/07 11:50:13;;;;;;;1.90;1.80;;;;;;;19.80;73.83;95587.09;4959011;29;20205;-87
2022/06/07 11:53:00;;;;;;;2.95;1.92;;;;;;;19.91;74.51;95581.00;4958257;28;20287;-85
2022/06/07 11:55:38;;;;;;;2.10;1.90;;;;;;;20.01;75.26;95573.38;4959680;29;20259;-87
2022/06/07 11:58:07;;;;;;;1.90;1.80;;;;;;;20.08;75.09;95571.38;4957996;29;20209;-86
2022/06/07 12:00:55;;;;;;;1.80;1.70;;;;;;;20.24;72.79;95577.63;4956703;28;20315;-87
2022/06/07 12:03:34;;;;;;;3.03;1.40;;;;;;;20.43;69.47;95575.63;4964666;29;20207;-87
2022/06/07 12:06:17;;;;;;;1.40;1.30;;;;;;;20.52;69.71;95568.97;4963941;29;20680;-87
2022/06/07 12:08:53;;;;;;;3.25;1.55;;;;;;;20.67;69.59;95577.84;4967237;29;20204;-86